sensor_id;sensor_type;location;lat;lon;timestamp;P1;durP1;ratioP1;P2;durP2;ratioP2
57561;SDS011;43397;51.530;5.974;2023-02-26T00:02:00;12.65;;;5.60;;
57561;SDS011;43397;51.530;5.974;2023-02-26T00:04:26;15.80;;;5.10;;
57561;SDS011;43397;51.530;5.974;2023-02-26T00:06:51;8.77;;;5.57;;
57561;SDS011;43397;51.530;5.974;2023-02-26T00:09:17;14.55;;;4.80;;
57561;SDS011;43397;51.530;5.974;2023-02-26T00:11:43;13.10;;;4.70;;
57561;SDS011;43397;51.530;5.974;2023-02-26T00:14:10;9.48;;;4.47;;
57561;SDS011;43397;51.530;5.974;2023-02-26T00:16:40;9.95;;;5.88;;
57561;SDS011;43397;51.530;5.974;2023-02-26T00:19:07;10.18;;;4.78;;
57561;SDS011;43397;51.530;5.974;2023-02-26T00:21:35;13.50;;;6.37;;
57561;SDS011;43397;51.530;5.974;2023-02-26T00:24:01;13.18;;;5.18;;
57561;SDS011;43397;51.530;5.974;2023-02-26T00:26:28;10.60;;;4.97;;
57561;SDS011;43397;51.530;5.974;2023-02-26T00:28:55;12.50;;;5.38;;
57561;SDS011;43397;51.530;5.974;2023-02-26T00:31:21;11.98;;;5.82;;
57561;SDS011;43397;51.530;5.974;2023-02-26T00:33:49;12.82;;;5.43;;
57561;SDS011;43397;51.530;5.974;2023-02-26T00:36:19;12.85;;;5.20;;
57561;SDS011;43397;51.530;5.974;2023-02-26T00:38:49;12.52;;;5.60;;
57561;SDS011;43397;51.530;5.974;2023-02-26T00:43:53;9.13;;;5.07;;
57561;SDS011;43397;51.530;5.974;2023-02-26T00:46:20;11.07;;;6.10;;
57561;SDS011;43397;51.530;5.974;2023-02-26T00:48:57;17.58;;;5.65;;
57561;SDS011;43397;51.530;5.974;2023-02-26T00:51:27;12.07;;;5.65;;
57561;SDS011;43397;51.530;5.974;2023-02-26T00:53:57;15.18;;;5.85;;
57561;SDS011;43397;51.530;5.974;2023-02-26T00:56:28;15.80;;;5.60;;
57561;SDS011;43397;51.530;5.974;2023-02-26T00:58:54;12.82;;;5.68;;
57561;SDS011;43397;51.530;5.974;2023-02-26T01:01:20;15.95;;;5.90;;
57561;SDS011;43397;51.530;5.974;2023-02-26T01:03:46;12.57;;;6.00;;
57561;SDS011;43397;51.530;5.974;2023-02-26T01:06:14;12.60;;;6.22;;
57561;SDS011;43397;51.530;5.974;2023-02-26T01:08:46;9.65;;;5.53;;
57561;SDS011;43397;51.530;5.974;2023-02-26T01:11:18;11.68;;;5.35;;
57561;SDS011;43397;51.530;5.974;2023-02-26T01:13:45;9.25;;;4.60;;
57561;SDS011;43397;51.530;5.974;2023-02-26T01:16:11;12.98;;;4.97;;
57561;SDS011;43397;51.530;5.974;2023-02-26T01:18:45;6.40;;;3.45;;
57561;SDS011;43397;51.530;5.974;2023-02-26T01:21:16;11.73;;;3.92;;
57561;SDS011;43397;51.530;5.974;2023-02-26T01:23:48;8.93;;;3.17;;
57561;SDS011;43397;51.530;5.974;2023-02-26T01:26:18;8.63;;;3.33;;
57561;SDS011;43397;51.530;5.974;2023-02-26T01:31:15;8.95;;;3.13;;
57561;SDS011;43397;51.530;5.974;2023-02-26T01:33:53;10.07;;;3.20;;
57561;SDS011;43397;51.530;5.974;2023-02-26T01:36:26;7.18;;;3.50;;
57561;SDS011;43397;51.530;5.974;2023-02-26T01:38:56;5.82;;;2.83;;
57561;SDS011;43397;51.530;5.974;2023-02-26T01:41:30;10.35;;;3.40;;
57561;SDS011;43397;51.530;5.974;2023-02-26T01:44:02;9.23;;;3.35;;
57561;SDS011;43397;51.530;5.974;2023-02-26T01:46:35;10.68;;;4.05;;
57561;SDS011;43397;51.530;5.974;2023-02-26T01:49:07;9.07;;;3.45;;
57561;SDS011;43397;51.530;5.974;2023-02-26T01:51:46;9.80;;;4.57;;
57561;SDS011;43397;51.530;5.974;2023-02-26T01:54:14;6.47;;;3.17;;
57561;SDS011;43397;51.530;5.974;2023-02-26T01:56:42;10.82;;;4.35;;
57561;SDS011;43397;51.530;5.974;2023-02-26T01:59:10;9.18;;;3.90;;
57561;SDS011;43397;51.530;5.974;2023-02-26T02:01:40;8.80;;;3.75;;
57561;SDS011;43397;51.530;5.974;2023-02-26T02:04:07;8.18;;;3.80;;
57561;SDS011;43397;51.530;5.974;2023-02-26T02:06:35;5.32;;;3.13;;
57561;SDS011;43397;51.530;5.974;2023-02-26T02:09:05;10.10;;;3.70;;
57561;SDS011;43397;51.530;5.974;2023-02-26T02:11:31;7.88;;;3.67;;
57561;SDS011;43397;51.530;5.974;2023-02-26T02:14:00;5.82;;;3.40;;
57561;SDS011;43397;51.530;5.974;2023-02-26T02:16:38;6.88;;;3.83;;
57561;SDS011;43397;51.530;5.974;2023-02-26T02:19:21;9.57;;;4.70;;
57561;SDS011;43397;51.530;5.974;2023-02-26T02:22:12;9.10;;;4.22;;
57561;SDS011;43397;51.530;5.974;2023-02-26T02:24:55;10.15;;;5.18;;
57561;SDS011;43397;51.530;5.974;2023-02-26T02:27:37;13.77;;;5.45;;
57561;SDS011;43397;51.530;5.974;2023-02-26T02:30:18;11.23;;;5.45;;
57561;SDS011;43397;51.530;5.974;2023-02-26T02:32:55;10.02;;;4.97;;
57561;SDS011;43397;51.530;5.974;2023-02-26T02:35:24;11.68;;;4.80;;
57561;SDS011;43397;51.530;5.974;2023-02-26T02:37:55;13.52;;;5.30;;
57561;SDS011;43397;51.530;5.974;2023-02-26T02:40:24;15.82;;;5.95;;
57561;SDS011;43397;51.530;5.974;2023-02-26T02:42:54;10.85;;;5.60;;
57561;SDS011;43397;51.530;5.974;2023-02-26T02:45:25;12.15;;;6.65;;
57561;SDS011;43397;51.530;5.974;2023-02-26T02:47:56;10.20;;;5.25;;
57561;SDS011;43397;51.530;5.974;2023-02-26T02:50:31;11.20;;;5.80;;
57561;SDS011;43397;51.530;5.974;2023-02-26T02:53:00;8.75;;;5.00;;
57561;SDS011;43397;51.530;5.974;2023-02-26T02:55:32;8.00;;;5.05;;
57561;SDS011;43397;51.530;5.974;2023-02-26T02:58:02;11.95;;;5.63;;
57561;SDS011;43397;51.530;5.974;2023-02-26T03:00:32;10.15;;;6.85;;
57561;SDS011;43397;51.530;5.974;2023-02-26T03:03:05;5.60;;;3.50;;
57561;SDS011;43397;51.530;5.974;2023-02-26T03:05:36;10.18;;;4.97;;
57561;SDS011;43397;51.530;5.974;2023-02-26T03:08:03;10.88;;;4.00;;
57561;SDS011;43397;51.530;5.974;2023-02-26T03:10:30;13.13;;;3.97;;
57561;SDS011;43397;51.530;5.974;2023-02-26T03:12:57;12.57;;;3.83;;
57561;SDS011;43397;51.530;5.974;2023-02-26T03:15:25;6.32;;;3.13;;
57561;SDS011;43397;51.530;5.974;2023-02-26T03:17:59;8.43;;;3.72;;
57561;SDS011;43397;51.530;5.974;2023-02-26T03:20:40;15.48;;;4.05;;
57561;SDS011;43397;51.530;5.974;2023-02-26T03:23:16;7.03;;;3.20;;
57561;SDS011;43397;51.530;5.974;2023-02-26T03:25:47;8.10;;;3.65;;
57561;SDS011;43397;51.530;5.974;2023-02-26T03:28:19;8.18;;;3.55;;
57561;SDS011;43397;51.530;5.974;2023-02-26T03:30:52;8.13;;;3.50;;
57561;SDS011;43397;51.530;5.974;2023-02-26T03:33:23;6.47;;;3.15;;
57561;SDS011;43397;51.530;5.974;2023-02-26T03:35:53;6.47;;;3.47;;
57561;SDS011;43397;51.530;5.974;2023-02-26T03:38:24;6.55;;;3.20;;
57561;SDS011;43397;51.530;5.974;2023-02-26T03:40:56;7.72;;;3.28;;
57561;SDS011;43397;51.530;5.974;2023-02-26T03:43:29;8.00;;;3.45;;
57561;SDS011;43397;51.530;5.974;2023-02-26T03:46:02;8.73;;;3.60;;
57561;SDS011;43397;51.530;5.974;2023-02-26T03:48:33;7.13;;;3.20;;
57561;SDS011;43397;51.530;5.974;2023-02-26T03:51:01;6.77;;;3.30;;
57561;SDS011;43397;51.530;5.974;2023-02-26T03:53:30;8.68;;;3.22;;
57561;SDS011;43397;51.530;5.974;2023-02-26T03:56:00;9.50;;;3.40;;
57561;SDS011;43397;51.530;5.974;2023-02-26T03:58:30;7.00;;;2.88;;
57561;SDS011;43397;51.530;5.974;2023-02-26T04:00:58;7.88;;;3.97;;
57561;SDS011;43397;51.530;5.974;2023-02-26T04:03:29;7.40;;;3.15;;
57561;SDS011;43397;51.530;5.974;2023-02-26T04:06:02;14.50;;;3.22;;
57561;SDS011;43397;51.530;5.974;2023-02-26T04:08:29;6.07;;;3.20;;
57561;SDS011;43397;51.530;5.974;2023-02-26T04:10:55;7.53;;;2.80;;
57561;SDS011;43397;51.530;5.974;2023-02-26T04:13:23;6.05;;;2.78;;
57561;SDS011;43397;51.530;5.974;2023-02-26T04:15:49;7.72;;;2.83;;
57561;SDS011;43397;51.530;5.974;2023-02-26T04:18:15;6.13;;;2.70;;
57561;SDS011;43397;51.530;5.974;2023-02-26T04:20:42;11.20;;;3.10;;
57561;SDS011;43397;51.530;5.974;2023-02-26T04:23:08;8.18;;;3.17;;
57561;SDS011;43397;51.530;5.974;2023-02-26T04:25:34;5.00;;;2.55;;
57561;SDS011;43397;51.530;5.974;2023-02-26T04:28:00;9.80;;;3.47;;
57561;SDS011;43397;51.530;5.974;2023-02-26T04:30:26;6.78;;;3.70;;
57561;SDS011;43397;51.530;5.974;2023-02-26T04:32:52;11.68;;;5.47;;
57561;SDS011;43397;51.530;5.974;2023-02-26T04:35:17;7.25;;;4.32;;
57561;SDS011;43397;51.530;5.974;2023-02-26T04:37:44;6.85;;;4.32;;
57561;SDS011;43397;51.530;5.974;2023-02-26T04:40:10;9.00;;;4.70;;
57561;SDS011;43397;51.530;5.974;2023-02-26T04:42:36;8.10;;;5.00;;
57561;SDS011;43397;51.530;5.974;2023-02-26T04:45:02;7.35;;;3.80;;
57561;SDS011;43397;51.530;5.974;2023-02-26T04:47:28;8.93;;;3.53;;
57561;SDS011;43397;51.530;5.974;2023-02-26T04:49:55;9.40;;;4.38;;
57561;SDS011;43397;51.530;5.974;2023-02-26T04:52:21;8.18;;;4.15;;
57561;SDS011;43397;51.530;5.974;2023-02-26T04:54:48;6.93;;;3.95;;
57561;SDS011;43397;51.530;5.974;2023-02-26T04:57:14;11.38;;;4.20;;
57561;SDS011;43397;51.530;5.974;2023-02-26T04:59:39;8.73;;;5.78;;
57561;SDS011;43397;51.530;5.974;2023-02-26T05:02:05;9.68;;;5.38;;
57561;SDS011;43397;51.530;5.974;2023-02-26T05:04:31;12.07;;;6.80;;
57561;SDS011;43397;51.530;5.974;2023-02-26T05:06:57;10.18;;;6.40;;
57561;SDS011;43397;51.530;5.974;2023-02-26T05:09:23;13.73;;;5.25;;
57561;SDS011;43397;51.530;5.974;2023-02-26T05:11:50;11.63;;;4.82;;
57561;SDS011;43397;51.530;5.974;2023-02-26T05:14:16;10.70;;;4.60;;
57561;SDS011;43397;51.530;5.974;2023-02-26T05:16:42;7.57;;;3.95;;
57561;SDS011;43397;51.530;5.974;2023-02-26T05:19:08;9.52;;;4.97;;
57561;SDS011;43397;51.530;5.974;2023-02-26T05:21:33;10.85;;;4.88;;
57561;SDS011;43397;51.530;5.974;2023-02-26T05:24:00;10.98;;;5.18;;
57561;SDS011;43397;51.530;5.974;2023-02-26T05:26:26;12.75;;;5.90;;
57561;SDS011;43397;51.530;5.974;2023-02-26T05:28:53;11.73;;;5.75;;
57561;SDS011;43397;51.530;5.974;2023-02-26T05:31:19;8.98;;;4.68;;
57561;SDS011;43397;51.530;5.974;2023-02-26T05:33:45;16.85;;;5.95;;
57561;SDS011;43397;51.530;5.974;2023-02-26T05:36:12;9.40;;;5.72;;
57561;SDS011;43397;51.530;5.974;2023-02-26T05:38:38;10.32;;;5.03;;
57561;SDS011;43397;51.530;5.974;2023-02-26T05:41:04;7.65;;;4.00;;
57561;SDS011;43397;51.530;5.974;2023-02-26T05:43:30;9.75;;;4.60;;
57561;SDS011;43397;51.530;5.974;2023-02-26T05:45:57;7.40;;;4.47;;
57561;SDS011;43397;51.530;5.974;2023-02-26T05:48:23;8.05;;;4.22;;
57561;SDS011;43397;51.530;5.974;2023-02-26T05:50:49;5.88;;;3.10;;
57561;SDS011;43397;51.530;5.974;2023-02-26T05:53:14;8.07;;;3.70;;
57561;SDS011;43397;51.530;5.974;2023-02-26T05:55:40;9.10;;;3.47;;
57561;SDS011;43397;51.530;5.974;2023-02-26T05:58:06;7.05;;;3.67;;
57561;SDS011;43397;51.530;5.974;2023-02-26T06:00:32;7.40;;;3.55;;
57561;SDS011;43397;51.530;5.974;2023-02-26T06:02:59;10.52;;;3.17;;
57561;SDS011;43397;51.530;5.974;2023-02-26T06:05:25;7.72;;;3.03;;
57561;SDS011;43397;51.530;5.974;2023-02-26T06:07:51;11.68;;;3.78;;
57561;SDS011;43397;51.530;5.974;2023-02-26T06:10:17;5.80;;;2.90;;
57561;SDS011;43397;51.530;5.974;2023-02-26T06:12:42;7.60;;;3.58;;
57561;SDS011;43397;51.530;5.974;2023-02-26T06:15:09;7.85;;;3.28;;
57561;SDS011;43397;51.530;5.974;2023-02-26T06:17:35;6.82;;;3.05;;
57561;SDS011;43397;51.530;5.974;2023-02-26T06:20:04;8.68;;;2.75;;
57561;SDS011;43397;51.530;5.974;2023-02-26T06:22:30;6.65;;;3.38;;
57561;SDS011;43397;51.530;5.974;2023-02-26T06:24:56;8.98;;;3.70;;
57561;SDS011;43397;51.530;5.974;2023-02-26T06:27:22;6.47;;;3.00;;
57561;SDS011;43397;51.530;5.974;2023-02-26T06:29:48;8.93;;;3.47;;
57561;SDS011;43397;51.530;5.974;2023-02-26T06:32:14;5.75;;;2.90;;
57561;SDS011;43397;51.530;5.974;2023-02-26T06:34:39;5.55;;;3.30;;
57561;SDS011;43397;51.530;5.974;2023-02-26T06:37:08;9.48;;;3.08;;
57561;SDS011;43397;51.530;5.974;2023-02-26T06:39:33;7.15;;;2.88;;
57561;SDS011;43397;51.530;5.974;2023-02-26T06:41:59;6.13;;;2.90;;
57561;SDS011;43397;51.530;5.974;2023-02-26T06:44:25;7.25;;;2.92;;
57561;SDS011;43397;51.530;5.974;2023-02-26T06:46:50;6.85;;;2.88;;
57561;SDS011;43397;51.530;5.974;2023-02-26T06:49:16;6.15;;;3.20;;
57561;SDS011;43397;51.530;5.974;2023-02-26T06:51:42;4.60;;;2.45;;
57561;SDS011;43397;51.530;5.974;2023-02-26T06:54:09;7.25;;;2.80;;
57561;SDS011;43397;51.530;5.974;2023-02-26T06:56:35;6.30;;;2.80;;
57561;SDS011;43397;51.530;5.974;2023-02-26T06:59:01;5.70;;;2.40;;
57561;SDS011;43397;51.530;5.974;2023-02-26T07:01:26;5.45;;;2.28;;
57561;SDS011;43397;51.530;5.974;2023-02-26T07:03:52;7.53;;;2.10;;
57561;SDS011;43397;51.530;5.974;2023-02-26T07:06:18;5.28;;;2.63;;
57561;SDS011;43397;51.530;5.974;2023-02-26T07:08:44;7.07;;;2.95;;
57561;SDS011;43397;51.530;5.974;2023-02-26T07:11:11;7.50;;;2.78;;
57561;SDS011;43397;51.530;5.974;2023-02-26T07:13:36;7.80;;;2.45;;
57561;SDS011;43397;51.530;5.974;2023-02-26T07:16:02;4.75;;;2.88;;
57561;SDS011;43397;51.530;5.974;2023-02-26T07:18:28;6.68;;;2.72;;
57561;SDS011;43397;51.530;5.974;2023-02-26T07:20:54;4.85;;;2.30;;
57561;SDS011;43397;51.530;5.974;2023-02-26T07:23:20;5.82;;;2.50;;
57561;SDS011;43397;51.530;5.974;2023-02-26T07:25:47;5.45;;;2.28;;
57561;SDS011;43397;51.530;5.974;2023-02-26T07:28:14;6.43;;;3.10;;
57561;SDS011;43397;51.530;5.974;2023-02-26T07:30:40;5.93;;;2.50;;
57561;SDS011;43397;51.530;5.974;2023-02-26T07:33:06;6.35;;;2.33;;
57561;SDS011;43397;51.530;5.974;2023-02-26T07:35:33;4.65;;;2.38;;
57561;SDS011;43397;51.530;5.974;2023-02-26T07:37:58;6.03;;;2.67;;
57561;SDS011;43397;51.530;5.974;2023-02-26T07:40:24;6.32;;;2.40;;
57561;SDS011;43397;51.530;5.974;2023-02-26T07:42:50;4.45;;;2.30;;
57561;SDS011;43397;51.530;5.974;2023-02-26T07:45:17;6.20;;;2.13;;
57561;SDS011;43397;51.530;5.974;2023-02-26T07:47:43;6.75;;;2.47;;
57561;SDS011;43397;51.530;5.974;2023-02-26T07:50:09;8.07;;;2.85;;
57561;SDS011;43397;51.530;5.974;2023-02-26T07:52:36;6.75;;;1.90;;
57561;SDS011;43397;51.530;5.974;2023-02-26T07:55:01;2.55;;;1.50;;
57561;SDS011;43397;51.530;5.974;2023-02-26T07:57:27;4.88;;;1.90;;
57561;SDS011;43397;51.530;5.974;2023-02-26T07:59:53;4.07;;;1.92;;
57561;SDS011;43397;51.530;5.974;2023-02-26T08:02:20;4.53;;;1.60;;
57561;SDS011;43397;51.530;5.974;2023-02-26T08:04:46;5.78;;;1.75;;
57561;SDS011;43397;51.530;5.974;2023-02-26T08:07:11;5.80;;;2.65;;
57561;SDS011;43397;51.530;5.974;2023-02-26T08:09:37;5.43;;;1.75;;
57561;SDS011;43397;51.530;5.974;2023-02-26T08:12:03;3.20;;;1.60;;
57561;SDS011;43397;51.530;5.974;2023-02-26T08:14:28;3.55;;;1.65;;
57561;SDS011;43397;51.530;5.974;2023-02-26T08:16:54;4.65;;;1.58;;
57561;SDS011;43397;51.530;5.974;2023-02-26T08:19:21;4.55;;;2.00;;
57561;SDS011;43397;51.530;5.974;2023-02-26T08:21:47;4.13;;;1.70;;
57561;SDS011;43397;51.530;5.974;2023-02-26T08:24:13;6.25;;;2.15;;
57561;SDS011;43397;51.530;5.974;2023-02-26T08:26:39;4.25;;;1.70;;
57561;SDS011;43397;51.530;5.974;2023-02-26T08:29:05;4.78;;;1.92;;
57561;SDS011;43397;51.530;5.974;2023-02-26T08:31:31;4.65;;;1.40;;
57561;SDS011;43397;51.530;5.974;2023-02-26T08:33:57;2.28;;;1.65;;
57561;SDS011;43397;51.530;5.974;2023-02-26T08:36:24;6.03;;;1.75;;
57561;SDS011;43397;51.530;5.974;2023-02-26T08:38:51;3.53;;;1.60;;
57561;SDS011;43397;51.530;5.974;2023-02-26T08:41:17;4.13;;;1.92;;
57561;SDS011;43397;51.530;5.974;2023-02-26T08:43:42;2.17;;;1.40;;
57561;SDS011;43397;51.530;5.974;2023-02-26T08:46:08;5.10;;;1.60;;
57561;SDS011;43397;51.530;5.974;2023-02-26T08:48:34;3.35;;;1.50;;
57561;SDS011;43397;51.530;5.974;2023-02-26T08:51:00;6.18;;;2.15;;
57561;SDS011;43397;51.530;5.974;2023-02-26T08:53:27;7.47;;;2.40;;
57561;SDS011;43397;51.530;5.974;2023-02-26T08:55:52;2.70;;;1.38;;
57561;SDS011;43397;51.530;5.974;2023-02-26T08:58:19;4.07;;;1.63;;
57561;SDS011;43397;51.530;5.974;2023-02-26T09:00:45;9.80;;;2.50;;
57561;SDS011;43397;51.530;5.974;2023-02-26T09:03:11;2.17;;;1.45;;
57561;SDS011;43397;51.530;5.974;2023-02-26T09:05:37;1.67;;;1.13;;
57561;SDS011;43397;51.530;5.974;2023-02-26T09:08:03;5.50;;;2.10;;
57561;SDS011;43397;51.530;5.974;2023-02-26T09:10:31;5.43;;;1.75;;
57561;SDS011;43397;51.530;5.974;2023-02-26T09:12:57;3.63;;;1.45;;
57561;SDS011;43397;51.530;5.974;2023-02-26T09:15:22;4.40;;;1.83;;
57561;SDS011;43397;51.530;5.974;2023-02-26T09:17:48;2.10;;;1.50;;
57561;SDS011;43397;51.530;5.974;2023-02-26T09:20:14;2.58;;;1.10;;
57561;SDS011;43397;51.530;5.974;2023-02-26T09:22:40;2.88;;;1.50;;
57561;SDS011;43397;51.530;5.974;2023-02-26T09:25:06;5.93;;;1.42;;
57561;SDS011;43397;51.530;5.974;2023-02-26T09:27:34;3.38;;;1.40;;
57561;SDS011;43397;51.530;5.974;2023-02-26T09:29:59;4.78;;;1.73;;
57561;SDS011;43397;51.530;5.974;2023-02-26T09:32:25;3.40;;;1.63;;
57561;SDS011;43397;51.530;5.974;2023-02-26T09:34:51;4.38;;;2.17;;
57561;SDS011;43397;51.530;5.974;2023-02-26T09:37:17;4.95;;;1.58;;
57561;SDS011;43397;51.530;5.974;2023-02-26T09:39:43;5.20;;;1.70;;
57561;SDS011;43397;51.530;5.974;2023-02-26T09:42:10;4.95;;;1.60;;
57561;SDS011;43397;51.530;5.974;2023-02-26T09:44:43;4.65;;;2.58;;
57561;SDS011;43397;51.530;5.974;2023-02-26T09:47:12;3.45;;;1.75;;
57561;SDS011;43397;51.530;5.974;2023-02-26T09:49:46;3.20;;;1.45;;
57561;SDS011;43397;51.530;5.974;2023-02-26T09:52:17;2.78;;;1.40;;
57561;SDS011;43397;51.530;5.974;2023-02-26T09:54:48;4.15;;;1.40;;
57561;SDS011;43397;51.530;5.974;2023-02-26T09:57:19;3.25;;;1.40;;
57561;SDS011;43397;51.530;5.974;2023-02-26T09:59:52;4.68;;;2.17;;
57561;SDS011;43397;51.530;5.974;2023-02-26T10:02:19;4.57;;;1.90;;
57561;SDS011;43397;51.530;5.974;2023-02-26T10:04:55;3.90;;;1.40;;
57561;SDS011;43397;51.530;5.974;2023-02-26T10:07:31;3.60;;;1.55;;
57561;SDS011;43397;51.530;5.974;2023-02-26T10:10:06;3.67;;;1.52;;
57561;SDS011;43397;51.530;5.974;2023-02-26T10:12:40;2.47;;;1.10;;
57561;SDS011;43397;51.530;5.974;2023-02-26T10:15:10;4.13;;;1.60;;
57561;SDS011;43397;51.530;5.974;2023-02-26T10:17:41;3.58;;;1.33;;
57561;SDS011;43397;51.530;5.974;2023-02-26T10:20:17;3.55;;;1.13;;
57561;SDS011;43397;51.530;5.974;2023-02-26T10:22:48;4.32;;;1.48;;
57561;SDS011;43397;51.530;5.974;2023-02-26T10:25:23;2.85;;;1.25;;
57561;SDS011;43397;51.530;5.974;2023-02-26T10:27:54;1.80;;;1.00;;
57561;SDS011;43397;51.530;5.974;2023-02-26T10:30:29;2.25;;;1.27;;
57561;SDS011;43397;51.530;5.974;2023-02-26T10:33:02;6.70;;;2.10;;
57561;SDS011;43397;51.530;5.974;2023-02-26T10:35:35;4.25;;;1.80;;
57561;SDS011;43397;51.530;5.974;2023-02-26T10:38:08;2.88;;;1.70;;
57561;SDS011;43397;51.530;5.974;2023-02-26T10:40:37;3.85;;;1.20;;
57561;SDS011;43397;51.530;5.974;2023-02-26T10:43:09;4.60;;;1.70;;
57561;SDS011;43397;51.530;5.974;2023-02-26T10:45:46;6.15;;;2.38;;
57561;SDS011;43397;51.530;5.974;2023-02-26T10:48:26;1.88;;;1.40;;
57561;SDS011;43397;51.530;5.974;2023-02-26T10:51:00;4.00;;;1.48;;
57561;SDS011;43397;51.530;5.974;2023-02-26T10:53:35;7.07;;;3.17;;
57561;SDS011;43397;51.530;5.974;2023-02-26T10:56:02;2.75;;;1.50;;
57561;SDS011;43397;51.530;5.974;2023-02-26T10:58:32;3.72;;;1.50;;
57561;SDS011;43397;51.530;5.974;2023-02-26T11:00:59;1.60;;;1.08;;
57561;SDS011;43397;51.530;5.974;2023-02-26T11:03:29;3.00;;;1.33;;
57561;SDS011;43397;51.530;5.974;2023-02-26T11:05:57;2.88;;;1.33;;
57561;SDS011;43397;51.530;5.974;2023-02-26T11:08:24;2.90;;;1.27;;
57561;SDS011;43397;51.530;5.974;2023-02-26T11:10:51;4.65;;;1.77;;
57561;SDS011;43397;51.530;5.974;2023-02-26T11:13:20;5.40;;;1.60;;
57561;SDS011;43397;51.530;5.974;2023-02-26T11:15:47;4.22;;;1.23;;
57561;SDS011;43397;51.530;5.974;2023-02-26T11:18:18;4.45;;;1.95;;
57561;SDS011;43397;51.530;5.974;2023-02-26T11:20:48;6.68;;;1.65;;
57561;SDS011;43397;51.530;5.974;2023-02-26T11:23:19;6.25;;;3.85;;
57561;SDS011;43397;51.530;5.974;2023-02-26T11:25:50;3.08;;;1.50;;
57561;SDS011;43397;51.530;5.974;2023-02-26T11:28:19;3.13;;;1.15;;
57561;SDS011;43397;51.530;5.974;2023-02-26T11:30:47;3.33;;;1.50;;
57561;SDS011;43397;51.530;5.974;2023-02-26T11:33:15;2.63;;;1.23;;
57561;SDS011;43397;51.530;5.974;2023-02-26T11:35:46;4.60;;;2.50;;
57561;SDS011;43397;51.530;5.974;2023-02-26T11:38:15;3.95;;;1.40;;
57561;SDS011;43397;51.530;5.974;2023-02-26T11:40:46;3.25;;;2.03;;
57561;SDS011;43397;51.530;5.974;2023-02-26T11:43:14;1.90;;;1.00;;
57561;SDS011;43397;51.530;5.974;2023-02-26T11:45:42;7.30;;;1.50;;
57561;SDS011;43397;51.530;5.974;2023-02-26T11:48:10;2.45;;;1.00;;
57561;SDS011;43397;51.530;5.974;2023-02-26T11:50:41;1.85;;;1.00;;
57561;SDS011;43397;51.530;5.974;2023-02-26T11:53:15;3.40;;;1.83;;
57561;SDS011;43397;51.530;5.974;2023-02-26T11:55:43;3.08;;;1.15;;
57561;SDS011;43397;51.530;5.974;2023-02-26T11:58:14;6.38;;;3.30;;
57561;SDS011;43397;51.530;5.974;2023-02-26T12:00:42;2.28;;;1.13;;
57561;SDS011;43397;51.530;5.974;2023-02-26T12:03:15;5.43;;;1.63;;
57561;SDS011;43397;51.530;5.974;2023-02-26T12:05:43;2.53;;;1.25;;
57561;SDS011;43397;51.530;5.974;2023-02-26T12:08:12;2.85;;;1.33;;
57561;SDS011;43397;51.530;5.974;2023-02-26T12:10:45;7.65;;;2.58;;
57561;SDS011;43397;51.530;5.974;2023-02-26T12:13:21;2.55;;;1.27;;
57561;SDS011;43397;51.530;5.974;2023-02-26T12:15:57;3.22;;;1.50;;
57561;SDS011;43397;51.530;5.974;2023-02-26T12:21:30;4.10;;;1.55;;
57561;SDS011;43397;51.530;5.974;2023-02-26T12:27:13;3.47;;;1.05;;
57561;SDS011;43397;51.530;5.974;2023-02-26T12:32:26;1.77;;;0.93;;
57561;SDS011;43397;51.530;5.974;2023-02-26T12:35:07;2.60;;;1.30;;
57561;SDS011;43397;51.530;5.974;2023-02-26T12:37:47;3.42;;;1.20;;
57561;SDS011;43397;51.530;5.974;2023-02-26T12:40:26;1.67;;;1.00;;
57561;SDS011;43397;51.530;5.974;2023-02-26T12:43:08;5.47;;;1.35;;
57561;SDS011;43397;51.530;5.974;2023-02-26T12:45:39;2.78;;;1.10;;
57561;SDS011;43397;51.530;5.974;2023-02-26T12:48:14;4.70;;;1.30;;
57561;SDS011;43397;51.530;5.974;2023-02-26T12:50:59;1.77;;;1.20;;
57561;SDS011;43397;51.530;5.974;2023-02-26T12:53:35;3.15;;;1.00;;
57561;SDS011;43397;51.530;5.974;2023-02-26T12:56:20;3.58;;;1.40;;
57561;SDS011;43397;51.530;5.974;2023-02-26T12:58:57;2.45;;;1.35;;
57561;SDS011;43397;51.530;5.974;2023-02-26T13:04:52;3.83;;;1.40;;
57561;SDS011;43397;51.530;5.974;2023-02-26T13:10:18;1.33;;;1.05;;
57561;SDS011;43397;51.530;5.974;2023-02-26T13:12:50;5.57;;;2.28;;
57561;SDS011;43397;51.530;5.974;2023-02-26T13:15:33;1.30;;;1.20;;
57561;SDS011;43397;51.530;5.974;2023-02-26T13:18:08;2.78;;;1.20;;
57561;SDS011;43397;51.530;5.974;2023-02-26T13:20:41;1.65;;;1.20;;
57561;SDS011;43397;51.530;5.974;2023-02-26T13:23:15;2.53;;;1.20;;
57561;SDS011;43397;51.530;5.974;2023-02-26T13:25:46;2.95;;;1.25;;
57561;SDS011;43397;51.530;5.974;2023-02-26T13:28:19;2.67;;;1.40;;
57561;SDS011;43397;51.530;5.974;2023-02-26T13:30:49;5.57;;;1.50;;
57561;SDS011;43397;51.530;5.974;2023-02-26T13:35:45;2.13;;;1.25;;
57561;SDS011;43397;51.530;5.974;2023-02-26T13:38:15;3.03;;;1.38;;
57561;SDS011;43397;51.530;5.974;2023-02-26T13:40:53;3.20;;;1.33;;
57561;SDS011;43397;51.530;5.974;2023-02-26T13:43:37;1.42;;;1.17;;
57561;SDS011;43397;51.530;5.974;2023-02-26T13:46:18;1.95;;;1.10;;
57561;SDS011;43397;51.530;5.974;2023-02-26T13:48:57;4.47;;;2.30;;
57561;SDS011;43397;51.530;5.974;2023-02-26T13:51:32;3.60;;;1.60;;
57561;SDS011;43397;51.530;5.974;2023-02-26T13:54:00;4.18;;;1.65;;
57561;SDS011;43397;51.530;5.974;2023-02-26T13:59:24;4.68;;;1.48;;
57561;SDS011;43397;51.530;5.974;2023-02-26T14:05:09;1.83;;;1.35;;
57561;SDS011;43397;51.530;5.974;2023-02-26T14:08:06;3.80;;;1.30;;
57561;SDS011;43397;51.530;5.974;2023-02-26T14:10:35;3.15;;;1.55;;
57561;SDS011;43397;51.530;5.974;2023-02-26T14:13:11;2.45;;;1.40;;
57561;SDS011;43397;51.530;5.974;2023-02-26T14:15:41;4.22;;;1.73;;
57561;SDS011;43397;51.530;5.974;2023-02-26T14:18:24;3.00;;;1.83;;
57561;SDS011;43397;51.530;5.974;2023-02-26T14:23:54;2.83;;;1.40;;
57561;SDS011;43397;51.530;5.974;2023-02-26T14:26:23;3.60;;;1.48;;
57561;SDS011;43397;51.530;5.974;2023-02-26T14:28:56;3.72;;;2.17;;
57561;SDS011;43397;51.530;5.974;2023-02-26T14:31:45;3.92;;;2.25;;
57561;SDS011;43397;51.530;5.974;2023-02-26T14:34:15;3.80;;;1.50;;
57561;SDS011;43397;51.530;5.974;2023-02-26T14:36:47;2.65;;;1.20;;
57561;SDS011;43397;51.530;5.974;2023-02-26T14:39:22;2.28;;;1.45;;
57561;SDS011;43397;51.530;5.974;2023-02-26T14:41:52;1.75;;;1.17;;
57561;SDS011;43397;51.530;5.974;2023-02-26T14:44:25;1.63;;;1.17;;
57561;SDS011;43397;51.530;5.974;2023-02-26T14:46:54;2.50;;;1.33;;
57561;SDS011;43397;51.530;5.974;2023-02-26T14:49:22;4.78;;;1.50;;
57561;SDS011;43397;51.530;5.974;2023-02-26T14:51:57;4.90;;;1.98;;
57561;SDS011;43397;51.530;5.974;2023-02-26T14:54:36;3.20;;;1.33;;
57561;SDS011;43397;51.530;5.974;2023-02-26T14:57:17;3.05;;;1.50;;
57561;SDS011;43397;51.530;5.974;2023-02-26T14:59:59;3.10;;;1.50;;
57561;SDS011;43397;51.530;5.974;2023-02-26T15:02:36;5.82;;;1.67;;
57561;SDS011;43397;51.530;5.974;2023-02-26T15:05:28;5.32;;;1.52;;
57561;SDS011;43397;51.530;5.974;2023-02-26T15:08:08;5.22;;;1.60;;
57561;SDS011;43397;51.530;5.974;2023-02-26T15:10:49;1.85;;;1.17;;
57561;SDS011;43397;51.530;5.974;2023-02-26T15:13:32;4.03;;;1.60;;
57561;SDS011;43397;51.530;5.974;2023-02-26T15:16:13;1.58;;;1.00;;
57561;SDS011;43397;51.530;5.974;2023-02-26T15:18:55;2.83;;;1.60;;
57561;SDS011;43397;51.530;5.974;2023-02-26T15:21:34;2.78;;;1.40;;
57561;SDS011;43397;51.530;5.974;2023-02-26T15:24:09;2.80;;;1.45;;
57561;SDS011;43397;51.530;5.974;2023-02-26T15:26:39;3.33;;;1.52;;
57561;SDS011;43397;51.530;5.974;2023-02-26T15:29:09;5.65;;;1.40;;
57561;SDS011;43397;51.530;5.974;2023-02-26T15:31:40;3.40;;;1.27;;
57561;SDS011;43397;51.530;5.974;2023-02-26T15:34:08;4.03;;;1.40;;